Aviation Digital Data Service (ADDS)

Output produced by METARs form (1826 UTC 24 November 2017)
found at http://www.aviationweather.gov/adds/metars/
 
TAF RPLC 241700Z 2418/2524 30006KT 9999 FEW020 BKN300 TX32/2506Z TN25/2421Z 
     TEMPO 2418/2424 33005KT FEW020 SCT100 BKN300